sensor_id;sensor_type;location;lat;lon;timestamp;temperature;humidity
74153;DHT22;62505;46.070;14.492;2023-11-25T00:01:02;21.90;73.40
74153;DHT22;62505;46.070;14.492;2023-11-25T00:03:29;21.90;73.50
74153;DHT22;62505;46.070;14.492;2023-11-25T00:05:56;21.90;73.50
74153;DHT22;62505;46.070;14.492;2023-11-25T00:08:23;21.90;73.50
74153;DHT22;62505;46.070;14.492;2023-11-25T00:10:50;21.90;73.40
74153;DHT22;62505;46.070;14.492;2023-11-25T00:13:17;21.90;73.50
74153;DHT22;62505;46.070;14.492;2023-11-25T00:15:47;21.90;73.40
74153;DHT22;62505;46.070;14.492;2023-11-25T00:18:14;21.90;73.20
74153;DHT22;62505;46.070;14.492;2023-11-25T00:20:41;21.90;73.30
74153;DHT22;62505;46.070;14.492;2023-11-25T00:23:08;21.90;73.40
74153;DHT22;62505;46.070;14.492;2023-11-25T00:25:35;21.90;73.40
74153;DHT22;62505;46.070;14.492;2023-11-25T00:28:02;21.90;73.30
74153;DHT22;62505;46.070;14.492;2023-11-25T00:30:31;21.90;73.40
74153;DHT22;62505;46.070;14.492;2023-11-25T00:33:00;21.90;73.40
74153;DHT22;62505;46.070;14.492;2023-11-25T00:35:29;21.90;73.30
74153;DHT22;62505;46.070;14.492;2023-11-25T00:37:56;21.90;73.20
74153;DHT22;62505;46.070;14.492;2023-11-25T00:40:23;21.90;73.30
74153;DHT22;62505;46.070;14.492;2023-11-25T00:42:51;21.90;73.40
74153;DHT22;62505;46.070;14.492;2023-11-25T00:45:18;21.90;73.50
74153;DHT22;62505;46.070;14.492;2023-11-25T00:47:46;21.90;73.40
74153;DHT22;62505;46.070;14.492;2023-11-25T00:50:15;21.90;73.20
74153;DHT22;62505;46.070;14.492;2023-11-25T00:52:42;21.90;73.40
74153;DHT22;62505;46.070;14.492;2023-11-25T00:55:09;21.90;73.40
74153;DHT22;62505;46.070;14.492;2023-11-25T00:57:37;21.90;73.40
74153;DHT22;62505;46.070;14.492;2023-11-25T01:00:05;21.90;73.30
74153;DHT22;62505;46.070;14.492;2023-11-25T01:02:35;21.90;73.20
74153;DHT22;62505;46.070;14.492;2023-11-25T01:05:02;21.90;73.10
74153;DHT22;62505;46.070;14.492;2023-11-25T01:07:31;21.90;73.10
74153;DHT22;62505;46.070;14.492;2023-11-25T01:09:58;21.90;72.90
74153;DHT22;62505;46.070;14.492;2023-11-25T01:12:25;21.90;73.00
74153;DHT22;62505;46.070;14.492;2023-11-25T01:14:52;21.90;73.10
74153;DHT22;62505;46.070;14.492;2023-11-25T01:17:19;21.90;72.90
74153;DHT22;62505;46.070;14.492;2023-11-25T01:19:46;21.90;72.90
74153;DHT22;62505;46.070;14.492;2023-11-25T01:22:13;21.90;72.90
74153;DHT22;62505;46.070;14.492;2023-11-25T01:24:42;21.90;72.90
74153;DHT22;62505;46.070;14.492;2023-11-25T01:27:09;21.90;73.00
74153;DHT22;62505;46.070;14.492;2023-11-25T01:29:36;21.90;72.80
74153;DHT22;62505;46.070;14.492;2023-11-25T01:32:04;21.90;73.00
74153;DHT22;62505;46.070;14.492;2023-11-25T01:34:31;21.90;73.00
74153;DHT22;62505;46.070;14.492;2023-11-25T01:36:58;21.90;73.00
74153;DHT22;62505;46.070;14.492;2023-11-25T01:39:25;21.90;72.90
74153;DHT22;62505;46.070;14.492;2023-11-25T01:41:53;21.90;72.80
74153;DHT22;62505;46.070;14.492;2023-11-25T01:44:21;21.90;72.80
74153;DHT22;62505;46.070;14.492;2023-11-25T01:46:49;21.90;72.80
74153;DHT22;62505;46.070;14.492;2023-11-25T01:49:19;21.90;72.80
74153;DHT22;62505;46.070;14.492;2023-11-25T01:51:47;21.80;72.50
74153;DHT22;62505;46.070;14.492;2023-11-25T01:54:15;21.90;72.60
74153;DHT22;62505;46.070;14.492;2023-11-25T01:56:46;21.90;72.70
74153;DHT22;62505;46.070;14.492;2023-11-25T01:59:18;21.90;72.90
74153;DHT22;62505;46.070;14.492;2023-11-25T02:01:48;21.80;72.70
74153;DHT22;62505;46.070;14.492;2023-11-25T02:04:15;21.90;72.80
74153;DHT22;62505;46.070;14.492;2023-11-25T02:06:42;21.90;72.90
74153;DHT22;62505;46.070;14.492;2023-11-25T02:09:10;21.90;72.90
74153;DHT22;62505;46.070;14.492;2023-11-25T02:11:53;21.80;72.80
74153;DHT22;62505;46.070;14.492;2023-11-25T02:14:21;21.80;72.80
74153;DHT22;62505;46.070;14.492;2023-11-25T02:16:49;21.90;72.80
74153;DHT22;62505;46.070;14.492;2023-11-25T02:19:17;21.90;72.60
74153;DHT22;62505;46.070;14.492;2023-11-25T02:21:45;21.90;72.60
74153;DHT22;62505;46.070;14.492;2023-11-25T02:24:13;21.80;72.60
74153;DHT22;62505;46.070;14.492;2023-11-25T02:26:40;21.90;72.60
74153;DHT22;62505;46.070;14.492;2023-11-25T02:29:08;21.90;72.50
74153;DHT22;62505;46.070;14.492;2023-11-25T02:31:35;21.90;72.80
74153;DHT22;62505;46.070;14.492;2023-11-25T02:34:04;21.90;72.30
74153;DHT22;62505;46.070;14.492;2023-11-25T02:36:32;21.80;72.60
74153;DHT22;62505;46.070;14.492;2023-11-25T02:38:59;21.90;73.40
74153;DHT22;62505;46.070;14.492;2023-11-25T02:41:28;21.90;72.50
74153;DHT22;62505;46.070;14.492;2023-11-25T02:43:55;21.90;72.60
74153;DHT22;62505;46.070;14.492;2023-11-25T02:46:22;21.90;72.70
74153;DHT22;62505;46.070;14.492;2023-11-25T02:48:50;21.80;72.60
74153;DHT22;62505;46.070;14.492;2023-11-25T02:51:17;21.90;72.80
74153;DHT22;62505;46.070;14.492;2023-11-25T02:53:45;21.80;72.60
74153;DHT22;62505;46.070;14.492;2023-11-25T02:56:12;21.90;72.60
74153;DHT22;62505;46.070;14.492;2023-11-25T02:58:40;21.90;72.60
74153;DHT22;62505;46.070;14.492;2023-11-25T03:01:08;21.80;72.40
74153;DHT22;62505;46.070;14.492;2023-11-25T03:03:39;21.90;72.50
74153;DHT22;62505;46.070;14.492;2023-11-25T03:06:13;21.80;72.40
74153;DHT22;62505;46.070;14.492;2023-11-25T03:08:40;21.80;72.50
74153;DHT22;62505;46.070;14.492;2023-11-25T03:11:07;21.80;72.40
74153;DHT22;62505;46.070;14.492;2023-11-25T03:13:39;21.90;72.60
74153;DHT22;62505;46.070;14.492;2023-11-25T03:16:07;21.90;72.60
74153;DHT22;62505;46.070;14.492;2023-11-25T03:18:36;21.90;72.50
74153;DHT22;62505;46.070;14.492;2023-11-25T03:21:03;21.80;72.50
74153;DHT22;62505;46.070;14.492;2023-11-25T03:23:30;21.90;72.30
74153;DHT22;62505;46.070;14.492;2023-11-25T03:25:57;21.90;72.50
74153;DHT22;62505;46.070;14.492;2023-11-25T03:28:24;21.80;72.40
74153;DHT22;62505;46.070;14.492;2023-11-25T03:30:53;21.80;72.50
74153;DHT22;62505;46.070;14.492;2023-11-25T03:33:20;21.90;72.40
74153;DHT22;62505;46.070;14.492;2023-11-25T03:35:48;21.90;72.50
74153;DHT22;62505;46.070;14.492;2023-11-25T03:38:14;21.80;72.30
74153;DHT22;62505;46.070;14.492;2023-11-25T03:40:41;21.90;72.40
74153;DHT22;62505;46.070;14.492;2023-11-25T03:43:08;21.90;72.40
74153;DHT22;62505;46.070;14.492;2023-11-25T03:45:35;21.80;72.40
74153;DHT22;62505;46.070;14.492;2023-11-25T03:48:04;21.80;72.10
74153;DHT22;62505;46.070;14.492;2023-11-25T03:50:32;21.80;72.10
74153;DHT22;62505;46.070;14.492;2023-11-25T03:53:00;21.80;72.30
74153;DHT22;62505;46.070;14.492;2023-11-25T03:55:27;21.80;72.40
74153;DHT22;62505;46.070;14.492;2023-11-25T03:57:54;21.80;72.30
74153;DHT22;62505;46.070;14.492;2023-11-25T04:00:21;21.90;72.50
74153;DHT22;62505;46.070;14.492;2023-11-25T04:02:48;21.80;72.10
74153;DHT22;62505;46.070;14.492;2023-11-25T04:05:18;21.90;72.30
74153;DHT22;62505;46.070;14.492;2023-11-25T04:07:45;21.80;72.20
74153;DHT22;62505;46.070;14.492;2023-11-25T04:10:12;21.80;72.40
74153;DHT22;62505;46.070;14.492;2023-11-25T04:12:41;21.80;72.10
74153;DHT22;62505;46.070;14.492;2023-11-25T04:15:09;21.80;72.00
74153;DHT22;62505;46.070;14.492;2023-11-25T04:17:37;21.80;72.30
74153;DHT22;62505;46.070;14.492;2023-11-25T04:20:06;21.80;71.90
74153;DHT22;62505;46.070;14.492;2023-11-25T04:22:41;21.80;72.20
74153;DHT22;62505;46.070;14.492;2023-11-25T04:25:09;21.80;72.10
74153;DHT22;62505;46.070;14.492;2023-11-25T04:27:38;21.80;72.00
74153;DHT22;62505;46.070;14.492;2023-11-25T04:30:07;21.90;72.10
74153;DHT22;62505;46.070;14.492;2023-11-25T04:32:35;21.80;72.30
74153;DHT22;62505;46.070;14.492;2023-11-25T04:35:02;21.80;72.00
74153;DHT22;62505;46.070;14.492;2023-11-25T04:37:31;21.80;72.20
74153;DHT22;62505;46.070;14.492;2023-11-25T04:40:00;21.80;72.10
74153;DHT22;62505;46.070;14.492;2023-11-25T04:42:30;21.80;71.80
74153;DHT22;62505;46.070;14.492;2023-11-25T04:45:03;21.80;72.20
74153;DHT22;62505;46.070;14.492;2023-11-25T04:47:49;21.80;71.90
74153;DHT22;62505;46.070;14.492;2023-11-25T04:50:17;21.90;72.00
74153;DHT22;62505;46.070;14.492;2023-11-25T04:52:49;21.80;72.10
74153;DHT22;62505;46.070;14.492;2023-11-25T04:55:18;21.90;72.00
74153;DHT22;62505;46.070;14.492;2023-11-25T04:57:51;21.80;71.90
74153;DHT22;62505;46.070;14.492;2023-11-25T05:00:19;21.80;71.90
74153;DHT22;62505;46.070;14.492;2023-11-25T05:02:47;21.80;71.80
74153;DHT22;62505;46.070;14.492;2023-11-25T05:05:14;21.80;71.90
74153;DHT22;62505;46.070;14.492;2023-11-25T05:07:41;21.80;71.60
74153;DHT22;62505;46.070;14.492;2023-11-25T05:10:09;21.80;71.80
74153;DHT22;62505;46.070;14.492;2023-11-25T05:12:38;21.80;71.90
74153;DHT22;62505;46.070;14.492;2023-11-25T05:15:07;21.90;72.00
74153;DHT22;62505;46.070;14.492;2023-11-25T05:17:36;21.80;71.90
74153;DHT22;62505;46.070;14.492;2023-11-25T05:20:03;21.80;71.90
74153;DHT22;62505;46.070;14.492;2023-11-25T05:22:30;21.80;71.70
74153;DHT22;62505;46.070;14.492;2023-11-25T05:24:58;21.90;71.90
74153;DHT22;62505;46.070;14.492;2023-11-25T05:27:25;21.90;71.90
74153;DHT22;62505;46.070;14.492;2023-11-25T05:29:53;21.80;71.70
74153;DHT22;62505;46.070;14.492;2023-11-25T05:32:21;21.80;71.80
74153;DHT22;62505;46.070;14.492;2023-11-25T05:34:48;21.80;71.90
74153;DHT22;62505;46.070;14.492;2023-11-25T05:37:15;21.80;71.90
74153;DHT22;62505;46.070;14.492;2023-11-25T05:39:45;21.80;72.00
74153;DHT22;62505;46.070;14.492;2023-11-25T05:42:12;21.80;72.00
74153;DHT22;62505;46.070;14.492;2023-11-25T05:44:43;21.80;72.00
74153;DHT22;62505;46.070;14.492;2023-11-25T05:47:12;21.80;72.00
74153;DHT22;62505;46.070;14.492;2023-11-25T05:49:40;21.80;71.90
74153;DHT22;62505;46.070;14.492;2023-11-25T05:52:07;21.80;71.90
74153;DHT22;62505;46.070;14.492;2023-11-25T05:54:34;21.80;71.90
74153;DHT22;62505;46.070;14.492;2023-11-25T05:57:01;21.80;72.00
74153;DHT22;62505;46.070;14.492;2023-11-25T05:59:28;21.80;72.00
74153;DHT22;62505;46.070;14.492;2023-11-25T06:02:04;21.80;71.90
74153;DHT22;62505;46.070;14.492;2023-11-25T06:04:35;21.80;72.00
74153;DHT22;62505;46.070;14.492;2023-11-25T06:07:02;21.80;72.00
74153;DHT22;62505;46.070;14.492;2023-11-25T06:09:29;21.80;71.80
74153;DHT22;62505;46.070;14.492;2023-11-25T06:11:57;21.80;71.80
74153;DHT22;62505;46.070;14.492;2023-11-25T06:14:23;21.90;71.90
74153;DHT22;62505;46.070;14.492;2023-11-25T06:16:51;21.80;71.80
74153;DHT22;62505;46.070;14.492;2023-11-25T06:19:23;21.80;71.60
74153;DHT22;62505;46.070;14.492;2023-11-25T06:21:51;21.80;72.60
74153;DHT22;62505;46.070;14.492;2023-11-25T06:24:20;21.80;71.60
74153;DHT22;62505;46.070;14.492;2023-11-25T06:26:47;21.80;71.80
74153;DHT22;62505;46.070;14.492;2023-11-25T06:29:15;21.80;71.70
74153;DHT22;62505;46.070;14.492;2023-11-25T06:31:42;21.80;71.70
74153;DHT22;62505;46.070;14.492;2023-11-25T06:34:11;21.80;71.80
74153;DHT22;62505;46.070;14.492;2023-11-25T06:36:38;21.80;71.80
74153;DHT22;62505;46.070;14.492;2023-11-25T06:39:07;21.80;71.80
74153;DHT22;62505;46.070;14.492;2023-11-25T06:41:36;21.80;71.70
74153;DHT22;62505;46.070;14.492;2023-11-25T06:44:08;21.80;71.70
74153;DHT22;62505;46.070;14.492;2023-11-25T06:46:35;21.80;71.20
74153;DHT22;62505;46.070;14.492;2023-11-25T06:49:02;21.80;71.50
74153;DHT22;62505;46.070;14.492;2023-11-25T06:51:29;21.80;71.60
74153;DHT22;62505;46.070;14.492;2023-11-25T06:53:56;21.80;72.00
74153;DHT22;62505;46.070;14.492;2023-11-25T06:56:25;21.80;71.90
74153;DHT22;62505;46.070;14.492;2023-11-25T06:58:52;21.80;72.00
74153;DHT22;62505;46.070;14.492;2023-11-25T07:01:19;21.80;72.10
74153;DHT22;62505;46.070;14.492;2023-11-25T07:03:48;21.80;72.10
74153;DHT22;62505;46.070;14.492;2023-11-25T07:06:15;21.90;72.30
74153;DHT22;62505;46.070;14.492;2023-11-25T07:08:43;21.80;72.30
74153;DHT22;62505;46.070;14.492;2023-11-25T07:11:10;21.80;72.20
74153;DHT22;62505;46.070;14.492;2023-11-25T07:13:40;21.90;72.30
74153;DHT22;62505;46.070;14.492;2023-11-25T07:16:08;21.80;72.30
74153;DHT22;62505;46.070;14.492;2023-11-25T07:18:37;21.90;72.40
74153;DHT22;62505;46.070;14.492;2023-11-25T07:21:08;21.80;72.40
74153;DHT22;62505;46.070;14.492;2023-11-25T07:23:37;21.80;72.40
74153;DHT22;62505;46.070;14.492;2023-11-25T07:26:04;21.80;72.40
74153;DHT22;62505;46.070;14.492;2023-11-25T07:28:32;21.80;72.40
74153;DHT22;62505;46.070;14.492;2023-11-25T07:31:00;21.90;72.40
74153;DHT22;62505;46.070;14.492;2023-11-25T07:33:27;21.80;72.40
74153;DHT22;62505;46.070;14.492;2023-11-25T07:35:54;21.90;72.50
74153;DHT22;62505;46.070;14.492;2023-11-25T07:38:22;21.90;72.50
74153;DHT22;62505;46.070;14.492;2023-11-25T07:40:50;21.80;72.40
74153;DHT22;62505;46.070;14.492;2023-11-25T07:43:17;21.90;72.50
74153;DHT22;62505;46.070;14.492;2023-11-25T07:45:43;21.90;72.60
74153;DHT22;62505;46.070;14.492;2023-11-25T07:48:12;21.90;72.50
74153;DHT22;62505;46.070;14.492;2023-11-25T07:50:39;21.90;72.60
74153;DHT22;62505;46.070;14.492;2023-11-25T07:53:11;21.90;72.70
74153;DHT22;62505;46.070;14.492;2023-11-25T07:55:38;21.90;72.60
74153;DHT22;62505;46.070;14.492;2023-11-25T07:58:05;21.90;72.70
74153;DHT22;62505;46.070;14.492;2023-11-25T08:00:32;21.90;72.70
74153;DHT22;62505;46.070;14.492;2023-11-25T08:02:59;21.90;72.60
74153;DHT22;62505;46.070;14.492;2023-11-25T08:05:29;21.90;72.70
74153;DHT22;62505;46.070;14.492;2023-11-25T08:07:56;21.90;72.80
74153;DHT22;62505;46.070;14.492;2023-11-25T08:10:24;21.90;73.50
74153;DHT22;62505;46.070;14.492;2023-11-25T08:12:57;21.90;72.70
74153;DHT22;62505;46.070;14.492;2023-11-25T08:15:24;21.90;72.80
74153;DHT22;62505;46.070;14.492;2023-11-25T08:17:51;21.90;72.70
74153;DHT22;62505;46.070;14.492;2023-11-25T08:20:18;21.90;72.80
74153;DHT22;62505;46.070;14.492;2023-11-25T08:22:47;21.90;72.70
74153;DHT22;62505;46.070;14.492;2023-11-25T08:25:15;21.90;72.70
74153;DHT22;62505;46.070;14.492;2023-11-25T08:27:41;21.90;72.70
74153;DHT22;62505;46.070;14.492;2023-11-25T08:30:09;21.90;72.70
74153;DHT22;62505;46.070;14.492;2023-11-25T08:32:38;21.90;72.70
74153;DHT22;62505;46.070;14.492;2023-11-25T08:35:05;21.90;72.60
74153;DHT22;62505;46.070;14.492;2023-11-25T08:37:34;21.90;72.60
74153;DHT22;62505;46.070;14.492;2023-11-25T08:40:03;21.90;72.50
74153;DHT22;62505;46.070;14.492;2023-11-25T08:42:30;21.90;72.50
74153;DHT22;62505;46.070;14.492;2023-11-25T08:44:57;21.90;72.60
74153;DHT22;62505;46.070;14.492;2023-11-25T08:47:27;21.90;72.60
74153;DHT22;62505;46.070;14.492;2023-11-25T08:49:54;21.90;72.60
74153;DHT22;62505;46.070;14.492;2023-11-25T08:52:22;21.90;72.60
74153;DHT22;62505;46.070;14.492;2023-11-25T08:54:50;21.90;72.50
74153;DHT22;62505;46.070;14.492;2023-11-25T08:57:19;21.90;72.50
74153;DHT22;62505;46.070;14.492;2023-11-25T08:59:47;21.90;72.60
74153;DHT22;62505;46.070;14.492;2023-11-25T09:02:16;21.90;72.50
74153;DHT22;62505;46.070;14.492;2023-11-25T09:04:48;21.90;72.40
74153;DHT22;62505;46.070;14.492;2023-11-25T09:07:16;21.90;72.50
74153;DHT22;62505;46.070;14.492;2023-11-25T09:09:43;21.90;72.50
74153;DHT22;62505;46.070;14.492;2023-11-25T09:12:11;21.90;72.50
74153;DHT22;62505;46.070;14.492;2023-11-25T09:14:42;21.90;72.50
74153;DHT22;62505;46.070;14.492;2023-11-25T09:17:10;21.90;72.50
74153;DHT22;62505;46.070;14.492;2023-11-25T09:19:41;21.90;72.50
74153;DHT22;62505;46.070;14.492;2023-11-25T09:22:08;21.90;72.50
74153;DHT22;62505;46.070;14.492;2023-11-25T09:24:37;21.90;72.50
74153;DHT22;62505;46.070;14.492;2023-11-25T09:27:05;21.90;72.50
74153;DHT22;62505;46.070;14.492;2023-11-25T09:29:33;21.90;72.50
74153;DHT22;62505;46.070;14.492;2023-11-25T09:32:02;21.90;72.50
74153;DHT22;62505;46.070;14.492;2023-11-25T09:34:30;21.90;72.50
74153;DHT22;62505;46.070;14.492;2023-11-25T09:36:58;21.90;72.50
74153;DHT22;62505;46.070;14.492;2023-11-25T09:39:25;21.90;72.50
74153;DHT22;62505;46.070;14.492;2023-11-25T09:41:55;21.90;72.50
74153;DHT22;62505;46.070;14.492;2023-11-25T09:44:22;21.90;72.50
74153;DHT22;62505;46.070;14.492;2023-11-25T09:46:50;21.90;72.50
74153;DHT22;62505;46.070;14.492;2023-11-25T09:49:18;21.90;72.50
74153;DHT22;62505;46.070;14.492;2023-11-25T09:51:45;21.90;72.50
74153;DHT22;62505;46.070;14.492;2023-11-25T09:54:20;21.90;72.50
74153;DHT22;62505;46.070;14.492;2023-11-25T09:56:48;21.90;72.50
74153;DHT22;62505;46.070;14.492;2023-11-25T09:59:16;21.90;72.50
74153;DHT22;62505;46.070;14.492;2023-11-25T10:01:44;21.90;72.60
74153;DHT22;62505;46.070;14.492;2023-11-25T10:04:12;21.90;72.50
74153;DHT22;62505;46.070;14.492;2023-11-25T10:06:41;21.90;72.60
74153;DHT22;62505;46.070;14.492;2023-11-25T10:09:11;21.90;72.50
74153;DHT22;62505;46.070;14.492;2023-11-25T10:11:38;21.90;72.50
74153;DHT22;62505;46.070;14.492;2023-11-25T10:14:11;21.90;72.50
74153;DHT22;62505;46.070;14.492;2023-11-25T10:16:40;21.90;73.30
74153;DHT22;62505;46.070;14.492;2023-11-25T10:19:20;21.90;72.50
74153;DHT22;62505;46.070;14.492;2023-11-25T10:21:51;21.90;72.50
74153;DHT22;62505;46.070;14.492;2023-11-25T10:24:18;21.90;72.50
74153;DHT22;62505;46.070;14.492;2023-11-25T10:26:47;21.90;72.50
74153;DHT22;62505;46.070;14.492;2023-11-25T10:29:18;21.90;72.50
74153;DHT22;62505;46.070;14.492;2023-11-25T10:31:49;21.90;72.50
74153;DHT22;62505;46.070;14.492;2023-11-25T10:34:18;21.90;72.60
74153;DHT22;62505;46.070;14.492;2023-11-25T10:36:48;21.90;72.50
74153;DHT22;62505;46.070;14.492;2023-11-25T10:39:16;21.90;72.50
74153;DHT22;62505;46.070;14.492;2023-11-25T10:41:49;21.90;72.50
74153;DHT22;62505;46.070;14.492;2023-11-25T10:44:16;21.90;72.50
74153;DHT22;62505;46.070;14.492;2023-11-25T10:46:44;21.90;72.50
74153;DHT22;62505;46.070;14.492;2023-11-25T10:49:11;21.90;72.50
74153;DHT22;62505;46.070;14.492;2023-11-25T10:51:39;21.90;72.40
74153;DHT22;62505;46.070;14.492;2023-11-25T10:54:09;21.90;72.50
74153;DHT22;62505;46.070;14.492;2023-11-25T10:56:36;21.90;72.50
74153;DHT22;62505;46.070;14.492;2023-11-25T10:59:05;21.90;72.50
74153;DHT22;62505;46.070;14.492;2023-11-25T11:01:36;21.90;72.50
74153;DHT22;62505;46.070;14.492;2023-11-25T11:04:11;21.90;72.50
74153;DHT22;62505;46.070;14.492;2023-11-25T11:06:48;21.90;72.50
74153;DHT22;62505;46.070;14.492;2023-11-25T11:09:25;21.90;72.60
74153;DHT22;62505;46.070;14.492;2023-11-25T11:11:55;21.90;72.50
74153;DHT22;62505;46.070;14.492;2023-11-25T11:14:27;21.90;72.60
74153;DHT22;62505;46.070;14.492;2023-11-25T11:17:04;21.90;72.50
74153;DHT22;62505;46.070;14.492;2023-11-25T11:19:38;21.90;72.50
74153;DHT22;62505;46.070;14.492;2023-11-25T11:22:10;21.90;72.50
74153;DHT22;62505;46.070;14.492;2023-11-25T11:24:52;21.90;66.90
74153;DHT22;62505;46.070;14.492;2023-11-25T11:27:26;21.90;61.70
74153;DHT22;62505;46.070;14.492;2023-11-25T11:30:02;21.60;53.20
74153;DHT22;62505;46.070;14.492;2023-11-25T11:32:36;21.50;51.30
74153;DHT22;62505;46.070;14.492;2023-11-25T11:35:06;21.40;50.30
74153;DHT22;62505;46.070;14.492;2023-11-25T11:37:37;21.40;51.70
74153;DHT22;62505;46.070;14.492;2023-11-25T11:40:08;21.40;53.50
74153;DHT22;62505;46.070;14.492;2023-11-25T11:42:38;21.50;55.40
74153;DHT22;62505;46.070;14.492;2023-11-25T11:45:08;21.50;55.80
74153;DHT22;62505;46.070;14.492;2023-11-25T11:47:44;21.50;56.40
74153;DHT22;62505;46.070;14.492;2023-11-25T11:50:18;21.50;57.30
74153;DHT22;62505;46.070;14.492;2023-11-25T11:52:46;21.50;57.90
74153;DHT22;62505;46.070;14.492;2023-11-25T11:55:37;21.60;58.40
74153;DHT22;62505;46.070;14.492;2023-11-25T11:58:05;21.60;59.00
74153;DHT22;62505;46.070;14.492;2023-11-25T12:00:39;21.60;59.30
74153;DHT22;62505;46.070;14.492;2023-11-25T12:03:06;21.60;60.00
74153;DHT22;62505;46.070;14.492;2023-11-25T12:05:34;21.60;60.40
74153;DHT22;62505;46.070;14.492;2023-11-25T12:08:01;21.60;60.50
74153;DHT22;62505;46.070;14.492;2023-11-25T12:10:28;21.60;60.80
74153;DHT22;62505;46.070;14.492;2023-11-25T12:12:57;21.60;61.10
74153;DHT22;62505;46.070;14.492;2023-11-25T12:15:24;21.60;61.80
74153;DHT22;62505;46.070;14.492;2023-11-25T12:17:51;21.60;62.00
74153;DHT22;62505;46.070;14.492;2023-11-25T12:20:19;21.60;62.40
74153;DHT22;62505;46.070;14.492;2023-11-25T12:22:47;21.60;62.70
74153;DHT22;62505;46.070;14.492;2023-11-25T12:25:14;21.60;62.80
74153;DHT22;62505;46.070;14.492;2023-11-25T12:27:48;21.60;63.00
74153;DHT22;62505;46.070;14.492;2023-11-25T12:30:17;21.60;63.20
74153;DHT22;62505;46.070;14.492;2023-11-25T12:32:45;21.60;63.30
74153;DHT22;62505;46.070;14.492;2023-11-25T12:35:12;21.60;63.50
74153;DHT22;62505;46.070;14.492;2023-11-25T12:37:40;21.70;63.70
74153;DHT22;62505;46.070;14.492;2023-11-25T12:40:15;21.70;64.00
74153;DHT22;62505;46.070;14.492;2023-11-25T12:42:44;21.60;63.90
74153;DHT22;62505;46.070;14.492;2023-11-25T12:48:08;21.70;64.20
74153;DHT22;62505;46.070;14.492;2023-11-25T12:50:58;21.70;64.40
74153;DHT22;62505;46.070;14.492;2023-11-25T12:53:25;21.70;64.60
74153;DHT22;62505;46.070;14.492;2023-11-25T12:55:52;21.70;64.70
74153;DHT22;62505;46.070;14.492;2023-11-25T12:58:19;21.70;64.80
74153;DHT22;62505;46.070;14.492;2023-11-25T13:00:48;21.70;64.80
74153;DHT22;62505;46.070;14.492;2023-11-25T13:03:25;21.70;65.10
74153;DHT22;62505;46.070;14.492;2023-11-25T13:05:57;21.70;65.10
74153;DHT22;62505;46.070;14.492;2023-11-25T13:08:26;21.70;65.20
74153;DHT22;62505;46.070;14.492;2023-11-25T13:10:55;21.70;65.30
74153;DHT22;62505;46.070;14.492;2023-11-25T13:13:25;21.70;65.40
74153;DHT22;62505;46.070;14.492;2023-11-25T13:15:53;21.70;65.40
74153;DHT22;62505;46.070;14.492;2023-11-25T13:18:21;21.70;66.00
74153;DHT22;62505;46.070;14.492;2023-11-25T13:20:50;21.70;66.80
74153;DHT22;62505;46.070;14.492;2023-11-25T13:23:17;21.70;66.50
74153;DHT22;62505;46.070;14.492;2023-11-25T13:25:46;21.70;66.30
74153;DHT22;62505;46.070;14.492;2023-11-25T13:28:13;21.70;66.70
74153;DHT22;62505;46.070;14.492;2023-11-25T13:30:41;21.80;66.50
74153;DHT22;62505;46.070;14.492;2023-11-25T13:33:08;21.70;67.20
74153;DHT22;62505;46.070;14.492;2023-11-25T13:35:37;21.70;66.70
74153;DHT22;62505;46.070;14.492;2023-11-25T13:38:06;21.70;66.80
74153;DHT22;62505;46.070;14.492;2023-11-25T13:40:34;21.70;67.00
74153;DHT22;62505;46.070;14.492;2023-11-25T13:43:04;21.80;67.70
74153;DHT22;62505;46.070;14.492;2023-11-25T13:45:32;21.70;66.90
74153;DHT22;62505;46.070;14.492;2023-11-25T13:47:59;21.80;67.10
74153;DHT22;62505;46.070;14.492;2023-11-25T13:50:30;21.70;66.90
74153;DHT22;62505;46.070;14.492;2023-11-25T13:52:57;21.80;68.20
74153;DHT22;62505;46.070;14.492;2023-11-25T13:55:26;21.80;67.50
74153;DHT22;62505;46.070;14.492;2023-11-25T13:57:53;21.80;67.40
74153;DHT22;62505;46.070;14.492;2023-11-25T14:00:20;21.80;68.20
74153;DHT22;62505;46.070;14.492;2023-11-25T14:02:49;21.80;68.00
74153;DHT22;62505;46.070;14.492;2023-11-25T14:05:16;21.80;68.60
74153;DHT22;62505;46.070;14.492;2023-11-25T14:07:45;21.90;68.70
74153;DHT22;62505;46.070;14.492;2023-11-25T14:10:13;21.90;68.90
74153;DHT22;62505;46.070;14.492;2023-11-25T14:12:42;21.90;68.40
74153;DHT22;62505;46.070;14.492;2023-11-25T14:15:09;21.80;67.60
74153;DHT22;62505;46.070;14.492;2023-11-25T14:17:37;21.90;67.60
74153;DHT22;62505;46.070;14.492;2023-11-25T14:20:07;21.80;67.00
74153;DHT22;62505;46.070;14.492;2023-11-25T14:22:42;21.80;67.10
74153;DHT22;62505;46.070;14.492;2023-11-25T14:25:11;21.80;67.10
74153;DHT22;62505;46.070;14.492;2023-11-25T14:27:38;21.80;67.00
74153;DHT22;62505;46.070;14.492;2023-11-25T14:30:07;21.80;67.00
74153;DHT22;62505;46.070;14.492;2023-11-25T14:32:35;21.80;67.10
74153;DHT22;62505;46.070;14.492;2023-11-25T14:35:02;21.80;67.10
74153;DHT22;62505;46.070;14.492;2023-11-25T14:37:29;21.80;67.20
74153;DHT22;62505;46.070;14.492;2023-11-25T14:39:56;21.80;67.20
74153;DHT22;62505;46.070;14.492;2023-11-25T14:42:23;21.80;67.30
74153;DHT22;62505;46.070;14.492;2023-11-25T14:44:50;21.80;67.30
74153;DHT22;62505;46.070;14.492;2023-11-25T14:47:20;21.80;67.40
74153;DHT22;62505;46.070;14.492;2023-11-25T14:49:48;21.80;67.40
74153;DHT22;62505;46.070;14.492;2023-11-25T14:52:15;21.80;67.40
74153;DHT22;62505;46.070;14.492;2023-11-25T14:54:42;21.80;67.50
74153;DHT22;62505;46.070;14.492;2023-11-25T14:57:09;21.80;67.50
74153;DHT22;62505;46.070;14.492;2023-11-25T14:59:37;21.80;67.60
74153;DHT22;62505;46.070;14.492;2023-11-25T15:02:04;21.80;67.70
74153;DHT22;62505;46.070;14.492;2023-11-25T15:04:33;21.80;67.60
74153;DHT22;62505;46.070;14.492;2023-11-25T15:07:00;21.80;67.70
74153;DHT22;62505;46.070;14.492;2023-11-25T15:09:27;21.80;67.70
74153;DHT22;62505;46.070;14.492;2023-11-25T15:11:54;21.80;67.80
74153;DHT22;62505;46.070;14.492;2023-11-25T15:14:23;21.80;67.70
74153;DHT22;62505;46.070;14.492;2023-11-25T15:16:51;21.80;67.80
74153;DHT22;62505;46.070;14.492;2023-11-25T15:19:18;21.80;67.90
74153;DHT22;62505;46.070;14.492;2023-11-25T15:21:47;21.80;67.90
74153;DHT22;62505;46.070;14.492;2023-11-25T15:24:16;21.80;67.90
74153;DHT22;62505;46.070;14.492;2023-11-25T15:26:45;21.80;67.90